This is the latest recevied weather packets stored in our database for station/object G1YBJ-13. If no packets are shown the sender has not sent any weather packets the latest 10 day(s).
| Time | Temp. | Humidity | Pressure | Rain* | Wind** | Luminosity | Snow |
|---|---|---|---|---|---|---|---|
| 1777824441 | 18.89° C | 63% | 1009.5 hPa | - | - | - | - |
| 1777823539 | 18.89° C | 64% | 1009.5 hPa | - | - | - | - |
| 1777822638 | 18.33° C | 64% | 1009.5 hPa | - | - | - | - |
| 1777821737 | 19.44° C | 62% | 1009.5 hPa | - | - | - | - |
| 1777820836 | 18.33° C | 65% | 1009.6 hPa | - | - | - | - |
| 1777819935 | 18.89° C | 64% | 1009.6 hPa | - | - | - | - |
| 1777819035 | 19.44° C | 62% | 1009.6 hPa | - | - | - | - |
| 1777818132 | 19.44° C | 61% | 1009.6 hPa | - | - | - | - |
| 1777817231 | 20.56° C | 60% | 1009.6 hPa | - | - | - | - |
| 1777816331 | 18.89° C | 63% | 1009.7 hPa | - | - | - | - |
| 1777815429 | 19.44° C | 62% | 1009.8 hPa | - | - | - | - |
| 1777814528 | 20° C | 61% | 1009.9 hPa | - | - | - | - |
| 1777813627 | 17.78° C | 66% | 1010 hPa | - | - | - | - |
| 1777812727 | 18.33° C | 65% | 1009.9 hPa | - | - | - | - |
| 1777811825 | 17.78° C | 67% | 1009.8 hPa | - | - | - | - |
| 1777810924 | 17.78° C | 67% | 1009.9 hPa | - | - | - | - |
| 1777810023 | 16.67° C | 69% | 1009.8 hPa | - | - | - | - |
| 1777809122 | 16.67° C | 68% | 1009.8 hPa | - | - | - | - |
| 1777808221 | 17.78° C | 66% | 1009.8 hPa | - | - | - | - |
| 1777807319 | 17.22° C | 69% | 1009.8 hPa | - | - | - | - |
| 1777806419 | 17.22° C | 69% | 1009.8 hPa | - | - | - | - |
| 1777805518 | 16.67° C | 70% | 1009.7 hPa | - | - | - | - |
| 1777804618 | 17.22° C | 69% | 1009.8 hPa | - | - | - | - |
| 1777803715 | 16.67° C | 71% | 1009.8 hPa | - | - | - | - |
| 1777802815 | 16.67° C | 71% | 1009.8 hPa | - | - | - | - |
* Rain since midnight (hover to see other rain measurements)
** Current wind speed in m/s (hover to see current wind gust speed)